Time;durP1;ratioP1;P1;durP2;ratioP2;P2;SDS_P1;SDS_P2;PMS_P1;PMS_P2;Temp;Humidity;BMP_temperature;BMP_pressure;BME280_temperature;BME280_humidity;BME280_pressure;Samples;Min_cycle;Max_cycle;Signal;HPM_P1;HPM_P2
2023/09/15 00:01:21;0.00;0.00;0.62;0.00;0.00;0.62;3.87;2.73;;;26.70;25.90;;;;;;2268887;61;20378;-55
2023/09/15 00:04:06;0.00;0.00;0.62;0.00;0.00;0.62;3.50;2.70;;;26.70;25.90;;;;;;2268643;61;20395;-48
2023/09/15 00:06:52;0.00;0.00;0.62;0.00;0.00;0.62;3.60;3.13;;;26.70;25.90;;;;;;2268978;61;20779;-54
2023/09/15 00:09:37;0.00;0.00;0.62;0.00;0.00;0.62;4.70;3.10;;;26.70;25.90;;;;;;2268460;61;20426;-57
2023/09/15 00:12:22;0.00;0.00;0.62;0.00;0.00;0.62;4.70;3.53;;;26.70;26.00;;;;;;2268409;61;20359;-53
2023/09/15 00:15:08;0.00;0.00;0.62;0.00;0.00;0.62;4.50;3.07;;;26.70;26.00;;;;;;2268973;61;20363;-49
2023/09/15 00:17:54;0.00;0.00;0.62;0.00;0.00;0.62;3.70;2.90;;;26.70;26.00;;;;;;2268500;61;20452;-51
2023/09/15 00:20:40;0.00;0.00;0.62;0.00;0.00;0.62;6.43;3.17;;;26.70;26.00;;;;;;2268716;61;20462;-54
2023/09/15 00:23:27;0.00;0.00;0.62;0.00;0.00;0.62;3.73;3.27;;;26.70;26.00;;;;;;2268829;61;20359;-49
2023/09/15 00:26:11;0.00;0.00;0.62;0.00;0.00;0.62;3.90;3.10;;;26.70;26.10;;;;;;2268439;61;20375;-48
2023/09/15 00:28:56;0.00;0.00;0.62;0.00;0.00;0.62;6.33;3.30;;;26.70;26.10;;;;;;2267689;61;20405;-51
2023/09/15 00:31:41;0.00;0.00;0.62;0.00;0.00;0.62;5.77;2.90;;;26.70;26.10;;;;;;2268018;61;20383;-53
2023/09/15 00:34:26;0.00;0.00;0.62;0.00;0.00;0.62;4.50;3.10;;;26.70;26.10;;;;;;2268462;61;20779;-49
2023/09/15 00:37:11;0.00;0.00;0.62;0.00;0.00;0.62;3.07;2.73;;;26.70;26.20;;;;;;2268639;61;20363;-53
2023/09/15 00:39:57;0.00;0.00;0.62;0.00;0.00;0.62;4.77;2.97;;;26.60;26.10;;;;;;2267796;61;20410;-58
2023/09/15 00:42:43;0.00;0.00;0.62;0.00;0.00;0.62;4.90;3.30;;;26.60;26.10;;;;;;2268832;61;20367;-52
2023/09/15 00:45:28;0.00;0.00;0.62;0.00;0.00;0.62;3.93;2.87;;;26.60;26.20;;;;;;2268910;61;20923;-48
2023/09/15 00:48:14;0.00;0.00;0.62;0.00;0.00;0.62;4.17;2.90;;;26.60;26.10;;;;;;2268207;61;20836;-49
2023/09/15 00:50:59;0.00;0.00;0.62;0.00;0.00;0.62;3.87;2.73;;;26.60;26.10;;;;;;2268650;61;20836;-51
2023/09/15 00:53:45;0.00;0.00;0.62;0.00;0.00;0.62;4.70;3.23;;;26.60;26.10;;;;;;2268331;61;20819;-54
2023/09/15 00:56:32;0.00;0.00;0.62;0.00;0.00;0.62;2.83;2.20;;;26.60;26.20;;;;;;2268142;61;20363;-58
2023/09/15 00:59:16;0.00;0.00;0.62;0.00;0.00;0.62;3.73;2.57;;;26.60;26.20;;;;;;2267751;61;20425;-54
2023/09/15 01:02:01;0.00;0.00;0.62;0.00;0.00;0.62;3.10;2.37;;;26.60;26.20;;;;;;2269062;61;20592;-49
2023/09/15 01:04:46;0.00;0.00;0.62;0.00;0.00;0.62;5.53;2.83;;;26.50;26.10;;;;;;2268857;61;20367;-52
2023/09/15 01:07:32;0.00;0.00;0.62;0.00;0.00;0.62;3.50;2.70;;;26.50;26.20;;;;;;2268799;61;20363;-54
2023/09/15 01:10:18;0.00;0.00;0.62;0.00;0.00;0.62;3.60;2.47;;;26.50;26.20;;;;;;2268206;61;20812;-52
2023/09/15 01:13:05;0.00;0.00;0.62;0.00;0.00;0.62;4.20;3.07;;;26.50;26.20;;;;;;2265440;61;20442;-54
2023/09/15 01:16:01;0.00;0.00;0.62;0.00;0.00;0.62;4.90;3.17;;;26.50;26.20;;;;;;2268744;61;20367;-55
2023/09/15 01:18:54;0.00;0.00;0.62;0.00;0.00;0.62;5.30;2.80;;;26.50;26.20;;;;;;2267557;61;20955;-53
2023/09/15 01:22:19;0.00;0.00;0.62;0.00;0.00;0.62;3.67;2.53;;;26.50;26.20;;;;;;2268671;61;20399;-57
2023/09/15 01:25:47;0.00;0.00;0.62;0.00;0.00;0.62;5.73;3.47;;;26.50;26.20;;;;;;2268341;61;20359;-53
2023/09/15 01:29:05;0.00;0.00;0.62;0.00;0.00;0.62;4.70;3.10;;;26.50;26.20;;;;;;2268001;61;20429;-52
2023/09/15 01:31:53;0.00;0.00;0.62;0.00;0.00;0.62;4.17;3.30;;;26.50;26.20;;;;;;2267669;61;20444;-53
2023/09/15 01:34:39;0.00;0.00;0.62;0.00;0.00;0.62;4.60;2.90;;;26.40;26.20;;;;;;2267930;61;20409;-60
2023/09/15 01:37:23;0.00;0.00;0.62;0.00;0.00;0.62;4.10;2.90;;;26.40;26.20;;;;;;2502074;53;20371;-57
2023/09/15 01:40:10;0.00;0.00;0.62;0.00;0.00;0.62;4.20;2.60;;;26.40;26.20;;;;;;2264001;61;20430;-51
2023/09/15 01:42:54;0.00;0.00;0.62;0.00;0.00;0.62;4.17;2.80;;;26.40;26.30;;;;;;2264243;61;20371;-52
2023/09/15 01:45:39;0.00;0.00;0.62;0.00;0.00;0.62;5.30;2.93;;;26.40;26.30;;;;;;2264592;61;20364;-48
2023/09/15 01:48:25;0.00;0.00;0.62;0.00;0.00;0.62;4.57;2.97;;;26.30;26.30;;;;;;2264246;61;20388;-54
2023/09/15 01:51:11;0.00;0.00;0.62;0.00;0.00;0.62;5.63;3.40;;;26.30;26.30;;;;;;2267496;61;20391;-55
2023/09/15 01:53:55;0.00;0.00;0.62;0.00;0.00;0.62;3.57;2.70;;;26.30;26.30;;;;;;2268535;61;20447;-62
2023/09/15 01:56:40;0.00;0.00;0.62;0.00;0.00;0.62;4.57;3.20;;;26.30;26.30;;;;;;2268522;61;20557;-49
2023/09/15 01:59:24;0.00;0.00;0.62;0.00;0.00;0.62;5.03;3.63;;;26.30;26.30;;;;;;2262471;61;20399;-59
2023/09/15 02:02:09;0.00;0.00;0.62;0.00;0.00;0.62;4.07;2.40;;;26.30;26.40;;;;;;2268044;61;20363;-52
2023/09/15 02:04:55;0.00;0.00;0.62;0.00;0.00;0.62;4.00;2.87;;;26.30;26.40;;;;;;2268710;61;20501;-53
2023/09/15 02:07:40;0.00;0.00;0.62;0.00;0.00;0.62;3.70;2.70;;;26.20;26.30;;;;;;2267991;61;20918;-53
2023/09/15 02:10:25;0.00;0.00;0.62;0.00;0.00;0.62;4.20;2.40;;;26.20;26.40;;;;;;2268324;61;20951;-48
2023/09/15 02:13:09;0.00;0.00;0.62;0.00;0.00;0.62;4.20;2.60;;;26.20;26.40;;;;;;2268287;61;20754;-51
2023/09/15 02:15:54;0.00;0.00;0.62;0.00;0.00;0.62;4.70;2.60;;;26.20;26.40;;;;;;2268379;61;20413;-55
2023/09/15 02:18:40;0.00;0.00;0.62;0.00;0.00;0.62;3.67;2.70;;;26.20;26.40;;;;;;2267547;61;20429;-53
2023/09/15 02:21:26;0.00;0.00;0.62;0.00;0.00;0.62;3.73;3.30;;;26.20;26.40;;;;;;2268577;61;20364;-57
2023/09/15 02:24:10;0.00;0.00;0.62;0.00;0.00;0.62;2.70;2.30;;;26.20;26.40;;;;;;2265100;61;20889;-57
2023/09/15 02:26:55;0.00;0.00;0.62;0.00;0.00;0.62;4.63;2.90;;;26.20;26.40;;;;;;2268437;61;20359;-52
2023/09/15 02:29:40;0.00;0.00;0.62;0.00;0.00;0.62;4.43;2.40;;;26.20;26.40;;;;;;2268161;61;20982;-50
2023/09/15 02:32:24;0.00;0.00;0.62;0.00;0.00;0.62;4.77;2.60;;;26.20;26.40;;;;;;2267900;61;20359;-53
2023/09/15 02:35:09;0.00;0.00;0.62;0.00;0.00;0.62;4.17;3.10;;;26.20;26.50;;;;;;2268428;61;20413;-53
2023/09/15 02:37:55;0.00;0.00;0.62;0.00;0.00;0.62;3.37;2.70;;;26.20;26.50;;;;;;2268186;61;20865;-57
2023/09/15 02:40:40;0.00;0.00;0.62;0.00;0.00;0.62;3.40;2.60;;;26.20;26.50;;;;;;2267857;61;20776;-53
2023/09/15 02:43:25;0.00;0.00;0.62;0.00;0.00;0.62;5.60;2.70;;;26.20;26.50;;;;;;2268383;61;20371;-49
2023/09/15 02:46:09;0.00;0.00;0.62;0.00;0.00;0.62;2.90;2.50;;;26.20;26.50;;;;;;2268483;61;20374;-54
2023/09/15 02:48:56;0.00;0.00;0.62;0.00;0.00;0.62;2.50;2.30;;;26.20;26.50;;;;;;2267651;61;20428;-50
2023/09/15 02:51:41;0.00;0.00;0.62;0.00;0.00;0.62;4.07;3.17;;;26.20;26.50;;;;;;2267671;61;20429;-58
2023/09/15 02:54:28;0.00;0.00;0.62;0.00;0.00;0.62;2.93;2.53;;;26.20;26.50;;;;;;2267878;61;20363;-56
2023/09/15 02:57:12;0.00;0.00;0.62;0.00;0.00;0.62;3.10;2.40;;;26.20;26.50;;;;;;2267932;61;20414;-53
2023/09/15 02:59:57;0.00;0.00;0.62;0.00;0.00;0.62;2.93;2.30;;;26.10;26.50;;;;;;2267714;61;20383;-54
2023/09/15 03:02:43;0.00;0.00;0.62;0.00;0.00;0.62;4.40;2.77;;;26.10;26.50;;;;;;2268063;61;20915;-53
2023/09/15 03:05:28;0.00;0.00;0.62;0.00;0.00;0.62;3.40;3.00;;;26.10;26.50;;;;;;2267993;61;20408;-56
2023/09/15 03:08:14;0.00;0.00;0.62;0.00;0.00;0.62;4.30;2.50;;;26.10;26.50;;;;;;2267599;61;20409;-54
2023/09/15 03:11:01;0.00;0.00;0.62;0.00;0.00;0.62;3.50;2.40;;;26.00;26.40;;;;;;2267978;61;20394;-53
2023/09/15 03:13:46;0.00;0.00;0.62;0.00;0.00;0.62;6.10;3.30;;;26.00;26.40;;;;;;2267818;61;20363;-51
2023/09/15 03:16:31;0.00;0.00;0.62;0.00;0.00;0.62;3.50;2.63;;;26.00;26.40;;;;;;2267817;61;20425;-52
2023/09/15 03:19:15;0.00;0.00;0.62;0.00;0.00;0.62;3.00;2.70;;;25.90;26.50;;;;;;2268031;61;20970;-55
2023/09/15 03:22:00;0.00;0.00;0.62;0.00;0.00;0.62;4.30;2.63;;;25.80;26.50;;;;;;2268072;61;20881;-52
2023/09/15 03:24:48;0.00;0.00;0.62;0.00;0.00;0.62;4.57;2.93;;;25.80;26.60;;;;;;2267591;61;20383;-55
2023/09/15 03:27:35;0.00;0.00;0.62;0.00;0.00;0.62;5.00;2.40;;;25.70;26.70;;;;;;2268412;61;20359;-55
2023/09/15 03:30:19;0.00;0.00;0.62;0.00;0.00;0.62;5.90;3.30;;;25.70;26.80;;;;;;2270280;61;20375;-53
2023/09/15 03:33:04;0.00;0.00;0.62;0.00;0.00;0.62;6.40;3.30;;;25.50;26.90;;;;;;2270562;61;20417;-57
2023/09/15 03:35:49;0.00;0.00;0.62;0.00;0.00;0.62;4.10;3.40;;;25.50;27.00;;;;;;2271003;61;20382;-57
2023/09/15 03:38:33;0.00;0.00;0.62;0.00;0.00;0.62;4.70;3.13;;;25.40;27.00;;;;;;2270677;61;20386;-55
2023/09/15 03:41:19;0.00;0.00;0.62;0.00;0.00;0.62;5.23;3.13;;;25.40;27.10;;;;;;2270669;61;20880;-57
2023/09/15 03:44:06;0.00;0.00;0.62;0.00;0.00;0.62;5.90;3.30;;;25.30;27.20;;;;;;2270388;61;20371;-59
2023/09/15 03:46:50;0.00;0.00;0.62;0.00;0.00;0.62;4.10;3.07;;;25.30;27.30;;;;;;2270616;61;20486;-56
2023/09/15 03:49:36;0.00;0.00;0.62;0.00;0.00;0.62;4.73;3.00;;;25.20;27.30;;;;;;2270140;61;20397;-58
2023/09/15 03:52:22;0.00;0.00;0.62;0.00;0.00;0.62;4.70;2.47;;;25.20;27.40;;;;;;2270164;61;20415;-56
2023/09/15 03:55:07;0.00;0.00;0.62;0.00;0.00;0.62;4.47;2.97;;;25.10;27.40;;;;;;2271076;61;20391;-59
2023/09/15 03:57:52;0.00;0.00;0.62;0.00;0.00;0.62;3.93;2.20;;;25.10;27.40;;;;;;2269959;61;20351;-56
2023/09/15 04:00:38;0.00;0.00;0.62;0.00;0.00;0.62;3.83;2.80;;;25.00;27.40;;;;;;2270011;61;20359;-58
2023/09/15 04:03:24;0.00;0.00;0.62;0.00;0.00;0.62;5.07;2.63;;;25.10;27.50;;;;;;2270459;61;20359;-55
2023/09/15 04:06:09;0.00;0.00;0.62;0.00;0.00;0.62;4.67;2.27;;;25.00;27.60;;;;;;2270714;61;20772;-58
2023/09/15 04:08:55;0.00;0.00;0.62;0.00;0.00;0.62;4.07;2.30;;;25.00;27.60;;;;;;2269725;61;20374;-53
2023/09/15 04:11:40;0.00;0.00;0.62;0.00;0.00;0.62;3.80;2.30;;;25.00;27.60;;;;;;2270403;61;20375;-56
2023/09/15 04:14:25;0.00;0.00;0.62;0.00;0.00;0.62;6.20;2.70;;;24.90;27.60;;;;;;2270486;61;20924;-58
2023/09/15 04:17:11;0.00;0.00;0.62;0.00;0.00;0.62;3.23;2.60;;;24.90;27.70;;;;;;2270094;61;20359;-56
2023/09/15 04:19:58;0.00;0.00;0.62;0.00;0.00;0.62;8.10;3.30;;;24.90;27.70;;;;;;2269629;61;20383;-56
2023/09/15 04:22:43;0.00;0.00;0.62;0.00;0.00;0.62;2.80;2.33;;;24.90;27.80;;;;;;2269957;61;20928;-59
2023/09/15 04:25:27;0.00;0.00;0.62;0.00;0.00;0.62;3.23;2.43;;;24.80;27.80;;;;;;2270038;61;20425;-56
2023/09/15 04:28:13;0.00;0.00;0.62;0.00;0.00;0.62;5.10;3.00;;;24.70;27.80;;;;;;2269552;61;20811;-60
2023/09/15 04:30:59;0.00;0.00;0.62;0.00;0.00;0.62;4.37;2.90;;;24.70;27.90;;;;;;2269807;61;20896;-58
2023/09/15 04:33:45;0.00;0.00;0.62;0.00;0.00;0.62;4.07;2.90;;;24.70;28.00;;;;;;2270212;61;20363;-55
2023/09/15 04:36:30;0.00;0.00;0.62;0.00;0.00;0.62;6.60;4.50;;;24.60;28.00;;;;;;2270003;61;20793;-58
2023/09/15 04:39:14;0.00;0.00;0.62;0.00;0.00;0.62;12.17;4.80;;;24.60;28.10;;;;;;2270102;61;20475;-56
2023/09/15 04:41:59;0.00;0.00;0.62;0.00;0.00;0.62;7.20;5.03;;;24.50;28.20;;;;;;2270525;61;20775;-54
2023/09/15 04:44:44;0.00;0.00;0.62;0.00;0.00;0.62;6.30;4.50;;;24.50;28.30;;;;;;2269848;61;20374;-61
2023/09/15 04:47:31;0.00;0.00;0.62;0.00;0.00;0.62;6.43;4.57;;;24.40;28.30;;;;;;2270266;61;20358;-58
2023/09/15 04:50:19;0.00;0.00;0.62;0.00;0.00;0.62;6.30;4.10;;;24.30;28.40;;;;;;2270320;61;20383;-53
2023/09/15 04:53:06;0.00;0.00;0.62;0.00;0.00;0.62;12.40;4.77;;;24.20;28.40;;;;;;2269740;61;20409;-58
2023/09/15 04:55:51;0.00;0.00;0.62;0.00;0.00;0.62;4.87;4.10;;;24.10;28.50;;;;;;2269716;61;20417;-55
2023/09/15 04:58:36;0.00;0.00;0.62;0.00;0.00;0.62;5.17;3.37;;;24.10;28.60;;;;;;2269256;61;20476;-57
2023/09/15 05:01:21;0.00;0.00;0.62;0.00;0.00;0.62;7.20;4.43;;;24.00;28.70;;;;;;2270106;61;20381;-57
2023/09/15 05:04:06;0.00;0.00;0.62;0.00;0.00;0.62;5.67;3.60;;;23.90;28.80;;;;;;2269154;61;20413;-56
2023/09/15 05:06:52;0.00;0.00;0.62;0.00;0.00;0.62;8.17;3.87;;;23.90;28.90;;;;;;2269437;61;20366;-54
2023/09/15 05:09:37;0.00;0.00;0.62;0.00;0.00;0.62;3.80;2.63;;;23.80;29.00;;;;;;2266556;61;20383;-60
2023/09/15 05:12:23;0.00;0.00;0.62;0.00;0.00;0.62;5.77;3.30;;;23.70;29.20;;;;;;2269413;61;20456;-60
2023/09/15 05:15:08;0.00;0.00;0.62;0.00;0.00;0.62;4.90;2.93;;;23.70;29.20;;;;;;2269254;61;20478;-57
2023/09/15 05:17:55;0.00;0.00;0.62;0.00;0.00;0.62;5.10;2.87;;;23.60;29.10;;;;;;2269171;61;20367;-58
2023/09/15 05:20:40;0.00;0.00;0.62;0.00;0.00;0.62;4.87;3.57;;;23.60;29.10;;;;;;2269646;61;20409;-58
2023/09/15 05:23:26;0.00;0.00;0.62;0.00;0.00;0.62;5.03;3.50;;;23.60;29.20;;;;;;2269845;61;20497;-60
2023/09/15 05:26:11;0.00;0.00;0.62;0.00;0.00;0.62;3.53;2.30;;;23.60;29.20;;;;;;2269573;61;20364;-60
2023/09/15 05:28:56;0.00;0.00;0.62;0.00;0.00;0.62;4.03;2.63;;;23.50;29.20;;;;;;2269007;61;20413;-56
2023/09/15 05:31:40;0.00;0.00;0.62;0.00;0.00;0.62;4.33;2.80;;;23.50;29.20;;;;;;2269949;61;20429;-60
2023/09/15 05:34:25;0.00;0.00;0.62;0.00;0.00;0.62;2.77;2.47;;;23.60;29.30;;;;;;2270250;61;20366;-59
2023/09/15 05:37:10;0.00;0.00;0.62;0.00;0.00;0.62;3.13;2.50;;;23.50;29.10;;;;;;2269946;61;20390;-58
2023/09/15 05:39:56;0.00;0.00;0.62;0.00;0.00;0.62;6.00;2.70;;;23.50;29.10;;;;;;2269383;61;20387;-59
2023/09/15 05:42:41;0.00;0.00;0.62;0.00;0.00;0.62;5.23;2.97;;;23.50;29.30;;;;;;2269494;61;20440;-57
2023/09/15 05:45:26;0.00;0.00;0.62;0.00;0.00;0.62;4.53;3.10;;;23.50;29.30;;;;;;2270049;61;20378;-59
2023/09/15 05:48:13;0.00;0.00;0.62;0.00;0.00;0.62;3.83;3.33;;;23.40;29.40;;;;;;2269321;61;20452;-56
2023/09/15 05:50:58;0.00;0.00;0.62;0.00;0.00;0.62;5.97;3.30;;;23.40;29.40;;;;;;2269773;61;20431;-55
2023/09/15 05:53:43;0.00;0.00;0.62;0.00;0.00;0.62;5.27;2.43;;;23.40;29.60;;;;;;2270104;61;20957;-57
2023/09/15 05:56:29;0.00;0.00;0.62;0.00;0.00;0.62;3.07;2.50;;;23.30;29.60;;;;;;2270169;61;20891;-55
2023/09/15 05:59:14;0.00;0.00;0.62;0.00;0.00;0.62;3.70;2.37;;;23.30;29.70;;;;;;2269268;61;20398;-54
2023/09/15 06:01:59;0.00;0.00;0.62;0.00;0.00;0.62;3.40;2.50;;;23.30;29.80;;;;;;2269969;61;20439;-58
2023/09/15 06:04:43;0.00;0.00;0.62;0.00;0.00;0.62;5.07;2.40;;;23.30;29.90;;;;;;2270011;61;20390;-56
2023/09/15 06:07:28;0.00;0.00;0.62;0.00;0.00;0.62;4.07;2.70;;;23.20;29.90;;;;;;2269795;61;20543;-56
2023/09/15 06:10:12;0.00;0.00;0.62;0.00;0.00;0.62;4.00;2.17;;;23.20;29.90;;;;;;2269720;61;20402;-59
2023/09/15 06:12:58;0.00;0.00;0.62;0.00;0.00;0.62;3.30;2.40;;;23.20;29.90;;;;;;2270138;61;20351;-54
2023/09/15 06:15:43;0.00;0.00;0.62;0.00;0.00;0.62;6.27;2.40;;;23.20;29.90;;;;;;2269830;61;20379;-59
2023/09/15 06:18:27;0.00;0.00;0.62;0.00;0.00;0.62;5.27;2.37;;;23.20;29.90;;;;;;2269425;61;20457;-56
2023/09/15 06:21:12;0.00;0.00;0.62;0.00;0.00;0.62;3.57;2.53;;;23.10;29.90;;;;;;2384331;53;20446;-56
2023/09/15 06:23:56;0.00;0.00;0.62;0.00;0.00;0.62;4.57;2.90;;;23.10;30.00;;;;;;2266118;61;20410;-55
2023/09/15 06:26:41;0.00;0.00;0.62;0.00;0.00;0.62;5.03;2.77;;;23.10;30.00;;;;;;2265913;61;20818;-55
2023/09/15 06:29:27;0.00;0.00;0.62;0.00;0.00;0.62;3.97;2.87;;;23.10;30.00;;;;;;2265257;61;20423;-56
2023/09/15 06:32:12;0.00;0.00;0.62;0.00;0.00;0.62;4.00;2.70;;;23.10;30.10;;;;;;2266129;61;20423;-57
2023/09/15 06:34:57;0.00;0.00;0.62;0.00;0.00;0.62;4.73;2.37;;;23.10;30.10;;;;;;2265465;61;20380;-54
2023/09/15 06:37:42;0.00;0.00;0.62;0.00;0.00;0.62;4.00;2.70;;;23.10;30.20;;;;;;2266504;61;20368;-58
2023/09/15 06:40:26;0.00;0.00;0.62;0.00;0.00;0.62;4.57;2.73;;;23.10;30.30;;;;;;2266249;61;20925;-60
2023/09/15 06:43:11;0.00;0.00;0.62;0.00;0.00;0.62;4.00;2.60;;;23.10;30.30;;;;;;2265597;61;20375;-58
2023/09/15 06:45:57;0.00;0.00;0.62;0.00;0.00;0.62;3.60;2.47;;;23.10;30.30;;;;;;2266264;61;20363;-57
2023/09/15 06:48:42;0.00;0.00;0.62;0.00;0.00;0.62;5.40;2.60;;;23.10;30.30;;;;;;2265583;61;20800;-57
2023/09/15 06:51:27;0.00;0.00;0.62;0.00;0.00;0.62;4.63;2.70;;;23.10;30.20;;;;;;2265557;61;20400;-59
2023/09/15 06:54:12;0.00;0.00;0.62;0.00;0.00;0.62;4.77;2.80;;;23.10;30.20;;;;;;2265735;61;20360;-58
2023/09/15 06:56:57;0.00;0.00;0.62;0.00;0.00;0.62;3.80;2.70;;;23.20;30.30;;;;;;2265889;61;20404;-56
2023/09/15 06:59:41;0.00;0.00;0.62;0.00;0.00;0.62;3.80;2.40;;;23.10;30.20;;;;;;2265304;61;20407;-59
2023/09/15 07:02:27;0.00;0.00;0.62;0.00;0.00;0.62;4.90;2.60;;;23.20;30.20;;;;;;2266705;61;20495;-59
2023/09/15 07:05:11;0.00;0.00;0.62;0.00;0.00;0.62;4.70;2.60;;;23.20;30.10;;;;;;2266063;61;20392;-57
2023/09/15 07:07:56;0.00;0.00;0.62;0.00;0.00;0.62;4.83;3.17;;;23.20;30.20;;;;;;2266681;61;20395;-57
2023/09/15 07:10:41;0.00;0.00;0.62;0.00;0.00;0.62;8.20;2.70;;;23.20;30.20;;;;;;2266480;61;20964;-58
2023/09/15 07:13:25;0.00;0.00;0.62;0.00;0.00;0.62;4.30;2.27;;;23.20;30.20;;;;;;2266423;61;20901;-56
2023/09/15 07:16:10;0.00;0.00;0.62;0.00;0.00;0.62;3.43;2.37;;;23.20;30.20;;;;;;2266551;61;20360;-57
2023/09/15 07:18:56;0.00;0.00;0.62;0.00;0.00;0.62;4.90;3.10;;;23.20;30.30;;;;;;2265969;61;20391;-60
2023/09/15 07:21:44;0.00;0.00;0.62;0.00;0.00;0.62;3.93;2.57;;;23.20;30.40;;;;;;2266214;61;20384;-54
2023/09/15 07:24:29;0.00;0.00;0.62;0.00;0.00;0.62;5.20;2.70;;;23.20;31.10;;;;;;2266286;61;20367;-59
2023/09/15 07:27:13;0.00;0.00;0.62;0.00;0.00;0.62;3.73;2.40;;;23.10;30.40;;;;;;2265439;61;20395;-56
2023/09/15 07:29:58;0.00;0.00;0.62;0.00;0.00;0.62;3.57;2.20;;;23.10;30.40;;;;;;2265841;61;20379;-58
2023/09/15 07:32:43;0.00;0.00;0.62;0.00;0.00;0.62;4.90;2.30;;;23.20;30.60;;;;;;2265559;61;20744;-60
2023/09/15 07:35:29;0.00;0.00;0.62;0.00;0.00;0.62;4.27;2.60;;;23.20;31.30;;;;;;2267206;61;20474;-57
2023/09/15 07:38:14;0.00;0.00;0.62;0.00;0.00;0.62;2.70;2.00;;;23.20;30.70;;;;;;2269592;61;20443;-57
2023/09/15 07:40:58;0.00;0.00;0.62;0.00;0.00;0.62;4.07;3.00;;;23.20;30.70;;;;;;2269917;61;20363;-58
2023/09/15 07:43:43;0.00;0.00;0.62;0.00;0.00;0.62;4.83;2.57;;;23.20;30.70;;;;;;2269904;61;20375;-56
2023/09/15 07:46:28;0.00;0.00;0.62;0.00;0.00;0.62;4.80;2.80;;;23.30;30.70;;;;;;2270325;61;20386;-54
2023/09/15 07:49:13;0.00;0.00;0.62;0.00;0.00;0.62;4.17;2.60;;;23.30;30.60;;;;;;2269408;61;20378;-59
2023/09/15 07:51:59;0.00;0.00;0.62;0.00;0.00;0.62;4.83;2.90;;;23.30;30.50;;;;;;2269402;61;20379;-59
2023/09/15 07:54:44;0.00;0.00;0.62;0.00;0.00;0.62;6.30;2.23;;;23.40;30.50;;;;;;2269831;61;20363;-60
2023/09/15 07:57:29;0.00;0.00;0.62;0.00;0.00;0.62;4.97;2.60;;;23.40;30.60;;;;;;2269684;61;20359;-59
2023/09/15 08:00:13;0.00;0.00;0.62;0.00;0.00;0.62;5.10;2.80;;;23.40;30.60;;;;;;2269768;61;20379;-59
2023/09/15 08:02:59;0.00;0.00;0.62;0.00;0.00;0.62;3.63;2.53;;;23.40;30.50;;;;;;2269639;61;20360;-60
2023/09/15 08:05:43;0.00;0.00;0.62;0.00;0.00;0.62;5.33;2.87;;;23.40;30.50;;;;;;2269657;61;20774;-59
2023/09/15 08:08:29;0.00;0.00;0.62;0.00;0.00;0.62;6.50;3.57;;;23.50;30.50;;;;;;2269967;61;20379;-59
2023/09/15 08:11:14;0.00;0.00;0.62;0.00;0.00;0.62;4.23;2.43;;;23.50;30.40;;;;;;2269951;61;20390;-57
2023/09/15 08:13:58;0.00;0.00;0.62;0.00;0.00;0.62;4.57;3.17;;;23.50;30.40;;;;;;2269990;61;20358;-57
2023/09/15 08:16:43;0.00;0.00;0.62;0.00;0.00;0.62;3.80;2.63;;;23.50;30.40;;;;;;2270192;61;20359;-60
2023/09/15 08:19:27;0.00;0.00;0.62;0.00;0.00;0.62;3.50;2.67;;;23.50;30.50;;;;;;2269402;61;20660;-58
2023/09/15 08:22:13;0.00;0.00;0.62;0.00;0.00;0.62;5.40;2.60;;;23.50;30.50;;;;;;2269927;61;20359;-56
2023/09/15 08:25:01;0.00;0.00;0.62;0.00;0.00;0.62;4.07;2.63;;;23.60;30.70;;;;;;2270137;61;20505;-60
2023/09/15 08:27:46;0.00;0.00;0.62;0.00;0.00;0.62;3.50;2.57;;;23.60;30.70;;;;;;2269927;61;20372;-56
2023/09/15 08:30:33;0.00;0.00;0.62;0.00;0.00;0.62;10.03;3.70;;;23.60;30.70;;;;;;2269561;61;20364;-60
2023/09/15 08:33:18;0.00;0.00;0.62;0.00;0.00;0.62;5.40;2.67;;;23.60;30.60;;;;;;2269115;61;20455;-57
2023/09/15 08:36:03;0.00;0.00;0.62;0.00;0.00;0.62;5.00;3.03;;;23.60;30.70;;;;;;2269553;61;20359;-57
2023/09/15 08:38:48;0.00;0.00;0.62;0.00;0.00;0.62;6.73;3.03;;;23.60;30.70;;;;;;2269188;61;20382;-55
2023/09/15 08:41:39;0.00;0.00;0.62;0.00;0.00;0.62;4.80;2.73;;;23.60;30.70;;;;;;2269446;61;20390;-55
2023/09/15 08:44:25;0.00;0.00;0.62;0.00;0.00;0.62;5.23;2.73;;;23.60;30.80;;;;;;2269751;61;20824;-60
2023/09/15 08:47:10;0.00;0.00;0.62;0.00;0.00;0.62;5.00;2.80;;;23.70;30.90;;;;;;2269729;61;20370;-54
2023/09/15 08:49:56;0.00;0.00;0.62;0.00;0.00;0.62;4.80;2.77;;;23.60;30.90;;;;;;2269051;61;20438;-56
2023/09/15 08:52:42;0.00;0.00;0.62;0.00;0.00;0.62;5.13;2.43;;;23.70;31.00;;;;;;2269575;61;20444;-57
2023/09/15 08:55:27;0.00;0.00;0.62;0.00;0.00;0.62;4.93;3.20;;;23.70;31.10;;;;;;2269291;61;20852;-55
2023/09/15 08:58:14;0.00;0.00;0.62;0.00;0.00;0.62;6.33;3.00;;;23.70;31.20;;;;;;2269105;61;20379;-59
2023/09/15 09:01:00;0.00;0.00;0.62;0.00;0.00;0.62;5.90;3.13;;;23.70;31.30;;;;;;2269314;61;20406;-57
2023/09/15 09:03:44;0.00;0.00;0.62;0.00;0.00;0.62;4.43;2.53;;;23.70;31.30;;;;;;2268649;61;20429;-59
2023/09/15 09:06:32;0.00;0.00;0.62;0.00;0.00;0.62;4.70;2.67;;;23.70;31.30;;;;;;2269293;61;20784;-56
2023/09/15 09:09:17;0.00;0.00;0.62;0.00;0.00;0.62;4.47;2.80;;;23.80;31.50;;;;;;2268982;61;20383;-56
2023/09/15 09:12:03;0.00;0.00;0.62;0.00;0.00;0.62;5.33;2.70;;;23.80;31.50;;;;;;2269325;61;20403;-59
2023/09/15 09:14:54;0.00;0.00;0.62;0.00;0.00;0.62;3.20;2.00;;;23.80;31.60;;;;;;2269261;61;20359;-57
2023/09/15 09:17:40;0.00;0.00;0.62;0.00;0.00;0.62;4.60;3.30;;;23.80;31.60;;;;;;2269249;61;20398;-57
2023/09/15 09:20:25;0.00;0.00;0.62;0.00;0.00;0.62;3.50;2.43;;;23.90;31.60;;;;;;2268793;61;20415;-59
2023/09/15 09:23:10;0.00;0.00;0.62;0.00;0.00;0.62;5.30;2.87;;;23.90;31.60;;;;;;2269545;61;20351;-58
2023/09/15 09:25:54;0.00;0.00;0.62;0.00;0.00;0.62;5.60;2.63;;;23.90;32.20;;;;;;2269130;61;20358;-57
2023/09/15 09:28:39;0.00;0.00;0.62;0.00;0.00;0.62;3.10;2.20;;;24.00;31.80;;;;;;2268832;61;20387;-60
2023/09/15 09:31:27;0.00;0.00;0.62;0.00;0.00;0.62;5.83;2.60;;;24.00;31.90;;;;;;2269263;61;20383;-55
2023/09/15 09:34:18;0.00;0.00;0.62;0.00;0.00;0.62;4.53;2.60;;;24.10;31.80;;;;;;2268992;61;20417;-64
2023/09/15 09:37:03;0.00;0.00;0.62;0.00;0.00;0.62;3.07;2.53;;;24.10;31.70;;;;;;2269411;61;20938;-54
2023/09/15 09:39:48;0.00;0.00;0.62;0.00;0.00;0.62;6.63;3.10;;;24.10;31.60;;;;;;2268788;61;20382;-57
2023/09/15 09:42:34;0.00;0.00;0.62;0.00;0.00;0.62;4.17;2.47;;;24.20;31.60;;;;;;2269032;61;20429;-56
2023/09/15 09:45:25;0.00;0.00;0.62;0.00;0.00;0.62;3.60;1.90;;;24.20;31.70;;;;;;2269087;61;20991;-59
2023/09/15 09:48:11;0.00;0.00;0.62;0.00;0.00;0.62;3.87;2.50;;;24.30;31.70;;;;;;2268487;61;20367;-57
2023/09/15 09:50:56;0.00;0.00;0.62;0.00;0.00;0.62;3.07;2.27;;;24.30;31.60;;;;;;2269210;61;20371;-58
2023/09/15 09:53:41;0.00;0.00;0.62;0.00;0.00;0.62;3.37;2.40;;;24.40;31.70;;;;;;2269077;61;20405;-56
2023/09/15 09:56:25;0.00;0.00;0.62;0.00;0.00;0.62;8.27;2.77;;;24.40;31.60;;;;;;2269139;61;20359;-60
2023/09/15 09:59:10;0.00;0.00;0.62;0.00;0.00;0.62;3.60;2.10;;;24.50;31.70;;;;;;2268526;61;20386;-57
2023/09/15 10:01:55;0.00;0.00;0.62;0.00;0.00;0.62;3.97;2.50;;;24.50;31.60;;;;;;2269268;61;20823;-59
2023/09/15 10:04:41;0.00;0.00;0.62;0.00;0.00;0.62;4.03;2.60;;;24.60;31.70;;;;;;2268625;61;20386;-57
2023/09/15 10:07:26;0.00;0.00;0.62;0.00;0.00;0.62;3.40;2.43;;;24.60;31.70;;;;;;2268617;61;20371;-56
2023/09/15 10:10:12;0.00;0.00;0.62;0.00;0.00;0.62;3.70;2.47;;;24.60;32.30;;;;;;2268493;61;20418;-59
2023/09/15 10:12:56;0.00;0.00;0.62;0.00;0.00;0.62;4.83;2.57;;;24.70;31.60;;;;;;2268979;61;20917;-59
2023/09/15 10:15:42;0.00;0.00;0.62;0.00;0.00;0.62;5.00;2.63;;;24.70;31.60;;;;;;2269170;61;20462;-54
2023/09/15 10:18:27;0.00;0.00;0.62;0.00;0.00;0.62;4.27;2.80;;;24.70;31.50;;;;;;2268179;61;20449;-59
2023/09/15 10:21:14;0.00;0.00;0.62;0.00;0.00;0.62;3.63;2.70;;;24.80;31.50;;;;;;2269134;61;20363;-60
2023/09/15 10:24:04;0.00;0.00;0.62;0.00;0.00;0.62;3.90;3.03;;;24.90;31.50;;;;;;2268897;61;20367;-58
2023/09/15 10:26:48;0.00;0.00;0.62;0.00;0.00;0.62;5.53;2.73;;;24.90;31.40;;;;;;2268833;61;20409;-58
2023/09/15 10:29:33;0.00;0.00;0.62;0.00;0.00;0.62;4.00;2.73;;;24.90;31.40;;;;;;2268600;61;20543;-58
2023/09/15 10:32:18;0.00;0.00;0.62;0.00;0.00;0.62;6.13;2.77;;;25.00;31.40;;;;;;2268768;61;20385;-60
2023/09/15 10:35:05;0.00;0.00;0.62;0.00;0.00;0.62;4.10;2.67;;;25.00;31.30;;;;;;2269331;61;20895;-60
2023/09/15 10:37:58;0.00;0.00;0.62;0.00;0.00;0.62;2.93;2.50;;;25.00;31.40;;;;;;2268613;61;20458;-56
2023/09/15 10:40:45;0.00;0.00;0.62;0.00;0.00;0.62;4.00;2.60;;;25.00;31.40;;;;;;2268868;61;20367;-54
2023/09/15 10:43:31;0.00;0.00;0.62;0.00;0.00;0.62;4.10;2.23;;;25.10;31.40;;;;;;2269270;61;20459;-58
2023/09/15 10:46:16;0.00;0.00;0.62;0.00;0.00;0.62;3.47;2.40;;;25.10;31.30;;;;;;2269124;61;20378;-57
2023/09/15 10:49:12;0.00;0.00;0.62;0.00;0.00;0.62;4.03;3.10;;;25.20;31.30;;;;;;2268324;61;21000;-56
2023/09/15 10:52:00;0.00;0.00;0.62;0.00;0.00;0.62;5.33;2.67;;;25.20;31.20;;;;;;2268337;61;20382;-55
2023/09/15 10:54:48;0.00;0.00;0.62;0.00;0.00;0.62;6.53;3.00;;;25.20;31.00;;;;;;2268265;61;20359;-51